sensor_id;sensor_type;location;lat;lon;timestamp;pressure;altitude;pressure_sealevel;temperature;humidity
30339;BME280;795;49.296;11.348;2023-05-12T00:01:03;96179.59;;;9.14;100.00
30339;BME280;795;49.296;11.348;2023-05-12T00:03:30;96222.47;;;9.38;100.00
30339;BME280;795;49.296;11.348;2023-05-12T00:06:00;96201.38;;;9.19;100.00
30339;BME280;795;49.296;11.348;2023-05-12T00:08:29;96237.22;;;9.50;100.00
30339;BME280;795;49.296;11.348;2023-05-12T00:10:57;96206.25;;;9.40;100.00
30339;BME280;795;49.296;11.348;2023-05-12T00:13:24;96205.75;;;9.36;100.00
30339;BME280;795;49.296;11.348;2023-05-12T00:15:52;96161.03;;;9.04;100.00
30339;BME280;795;49.296;11.348;2023-05-12T00:18:21;96244.59;;;9.48;100.00
30339;BME280;795;49.296;11.348;2023-05-12T00:20:48;96212.94;;;9.35;100.00
30339;BME280;795;49.296;11.348;2023-05-12T00:23:15;96202.38;;;9.26;100.00
30339;BME280;795;49.296;11.348;2023-05-12T00:25:43;96208.94;;;9.31;100.00
30339;BME280;795;49.296;11.348;2023-05-12T00:28:10;96142.59;;;8.93;100.00
30339;BME280;795;49.296;11.348;2023-05-12T00:30:37;96139.75;;;8.95;100.00
30339;BME280;795;49.296;11.348;2023-05-12T00:33:04;96233.88;;;9.48;100.00
30339;BME280;795;49.296;11.348;2023-05-12T00:35:31;96206.44;;;9.30;100.00
30339;BME280;795;49.296;11.348;2023-05-12T00:37:58;96215.63;;;9.35;100.00
30339;BME280;795;49.296;11.348;2023-05-12T00:40:25;96159.38;;;9.03;100.00
30339;BME280;795;49.296;11.348;2023-05-12T00:42:52;96162.34;;;9.08;100.00
30339;BME280;795;49.296;11.348;2023-05-12T00:45:19;96178.78;;;9.21;100.00
30339;BME280;795;49.296;11.348;2023-05-12T00:47:50;96172.94;;;9.18;100.00
30339;BME280;795;49.296;11.348;2023-05-12T00:50:17;96119.69;;;8.91;100.00
30339;BME280;795;49.296;11.348;2023-05-12T00:52:47;96185.81;;;9.22;100.00
30339;BME280;795;49.296;11.348;2023-05-12T00:55:15;96122.69;;;8.88;100.00
30339;BME280;795;49.296;11.348;2023-05-12T00:57:43;96220.50;;;9.48;100.00
30339;BME280;795;49.296;11.348;2023-05-12T01:00:11;96219.13;;;9.52;100.00
30339;BME280;795;49.296;11.348;2023-05-12T01:02:38;96205.59;;;9.46;100.00
30339;BME280;795;49.296;11.348;2023-05-12T01:05:06;96209.78;;;9.48;100.00
30339;BME280;795;49.296;11.348;2023-05-12T01:07:37;96213.13;;;9.50;100.00
30339;BME280;795;49.296;11.348;2023-05-12T01:10:20;96216.63;;;9.51;100.00
30339;BME280;795;49.296;11.348;2023-05-12T01:12:48;96215.47;;;9.53;100.00
30339;BME280;795;49.296;11.348;2023-05-12T01:15:16;96188.34;;;9.32;100.00
30339;BME280;795;49.296;11.348;2023-05-12T01:18:01;96171.25;;;9.17;100.00
30339;BME280;795;49.296;11.348;2023-05-12T01:20:30;96186.31;;;9.34;100.00
30339;BME280;795;49.296;11.348;2023-05-12T01:22:59;96184.50;;;9.34;100.00
30339;BME280;795;49.296;11.348;2023-05-12T01:25:33;96187.00;;;9.36;100.00
30339;BME280;795;49.296;11.348;2023-05-12T01:28:02;96216.97;;;9.56;100.00
30339;BME280;795;49.296;11.348;2023-05-12T01:30:31;96198.38;;;9.46;100.00
30339;BME280;795;49.296;11.348;2023-05-12T01:32:58;96138.78;;;9.12;100.00
30339;BME280;795;49.296;11.348;2023-05-12T01:35:25;96210.78;;;9.55;100.00
30339;BME280;795;49.296;11.348;2023-05-12T01:37:52;96120.38;;;9.01;100.00
30339;BME280;795;49.296;11.348;2023-05-12T01:40:19;96178.13;;;9.35;100.00
30339;BME280;795;49.296;11.348;2023-05-12T01:42:47;96154.34;;;9.24;100.00
30339;BME280;795;49.296;11.348;2023-05-12T01:45:14;96131.25;;;9.15;100.00
30339;BME280;795;49.296;11.348;2023-05-12T01:47:40;96182.97;;;9.48;100.00
30339;BME280;795;49.296;11.348;2023-05-12T01:50:08;96121.88;;;9.19;100.00
30339;BME280;795;49.296;11.348;2023-05-12T01:52:35;96139.47;;;9.30;100.00
30339;BME280;795;49.296;11.348;2023-05-12T01:55:03;96015.44;;;8.65;100.00
30339;BME280;795;49.296;11.348;2023-05-12T01:57:30;96180.28;;;9.64;100.00
30339;BME280;795;49.296;11.348;2023-05-12T01:59:58;96111.50;;;9.16;100.00
30339;BME280;795;49.296;11.348;2023-05-12T02:02:26;96125.38;;;9.20;100.00
30339;BME280;795;49.296;11.348;2023-05-12T02:04:53;96173.25;;;9.47;100.00
30339;BME280;795;49.296;11.348;2023-05-12T02:07:20;96135.28;;;9.27;100.00
30339;BME280;795;49.296;11.348;2023-05-12T02:09:47;96147.81;;;9.35;100.00
30339;BME280;795;49.296;11.348;2023-05-12T02:12:14;96129.75;;;9.29;100.00
30339;BME280;795;49.296;11.348;2023-05-12T02:14:41;96180.31;;;9.56;100.00
30339;BME280;795;49.296;11.348;2023-05-12T02:17:08;96142.47;;;9.27;100.00
30339;BME280;795;49.296;11.348;2023-05-12T02:19:35;96121.03;;;9.19;100.00
30339;BME280;795;49.296;11.348;2023-05-12T02:22:02;96148.47;;;9.29;100.00
30339;BME280;795;49.296;11.348;2023-05-12T02:24:29;96166.56;;;9.43;100.00
30339;BME280;795;49.296;11.348;2023-05-12T02:26:56;96185.47;;;9.58;100.00
30339;BME280;795;49.296;11.348;2023-05-12T02:29:23;96128.41;;;9.25;100.00
30339;BME280;795;49.296;11.348;2023-05-12T02:31:50;96180.97;;;9.58;100.00
30339;BME280;795;49.296;11.348;2023-05-12T02:34:17;96153.34;;;9.42;100.00
30339;BME280;795;49.296;11.348;2023-05-12T02:36:44;96147.00;;;9.34;100.00
30339;BME280;795;49.296;11.348;2023-05-12T02:39:11;96177.28;;;9.51;100.00
30339;BME280;795;49.296;11.348;2023-05-12T02:41:39;96150.84;;;9.32;100.00
30339;BME280;795;49.296;11.348;2023-05-12T02:44:06;96168.56;;;9.41;100.00
30339;BME280;795;49.296;11.348;2023-05-12T02:46:33;96142.78;;;9.24;100.00
30339;BME280;795;49.296;11.348;2023-05-12T02:49:00;96127.06;;;9.21;100.00
30339;BME280;795;49.296;11.348;2023-05-12T02:51:27;96191.16;;;9.55;100.00
30339;BME280;795;49.296;11.348;2023-05-12T02:53:53;96186.97;;;9.52;100.00
30339;BME280;795;49.296;11.348;2023-05-12T02:56:21;96141.13;;;9.31;100.00
30339;BME280;795;49.296;11.348;2023-05-12T02:58:48;96179.78;;;9.53;100.00
30339;BME280;795;49.296;11.348;2023-05-12T03:01:15;96120.84;;;9.20;100.00
30339;BME280;795;49.296;11.348;2023-05-12T03:03:42;96096.25;;;9.09;100.00
30339;BME280;795;49.296;11.348;2023-05-12T03:06:09;96169.25;;;9.51;100.00
30339;BME280;795;49.296;11.348;2023-05-12T03:08:36;96132.59;;;9.27;100.00
30339;BME280;795;49.296;11.348;2023-05-12T03:11:03;96176.78;;;9.56;100.00
30339;BME280;795;49.296;11.348;2023-05-12T03:13:31;96147.47;;;9.38;100.00
30339;BME280;795;49.296;11.348;2023-05-12T03:15:59;96141.78;;;9.41;100.00
30339;BME280;795;49.296;11.348;2023-05-12T03:18:27;96129.75;;;9.29;100.00
30339;BME280;795;49.296;11.348;2023-05-12T03:20:54;96162.03;;;9.60;100.00
30339;BME280;795;49.296;11.348;2023-05-12T03:23:21;96147.81;;;9.51;100.00
30339;BME280;795;49.296;11.348;2023-05-12T03:25:48;96130.75;;;9.44;100.00
30339;BME280;795;49.296;11.348;2023-05-12T03:28:15;96167.91;;;9.63;100.00
30339;BME280;795;49.296;11.348;2023-05-12T03:30:42;96128.72;;;9.38;100.00
30339;BME280;795;49.296;11.348;2023-05-12T03:33:09;96150.97;;;9.55;100.00
30339;BME280;795;49.296;11.348;2023-05-12T03:35:36;96124.03;;;9.40;100.00
30339;BME280;795;49.296;11.348;2023-05-12T03:38:03;96147.47;;;9.54;100.00
30339;BME280;795;49.296;11.348;2023-05-12T03:40:30;96169.22;;;9.67;100.00
30339;BME280;795;49.296;11.348;2023-05-12T03:42:57;96123.38;;;9.46;100.00
30339;BME280;795;49.296;11.348;2023-05-12T03:45:24;96144.44;;;9.57;100.00
30339;BME280;795;49.296;11.348;2023-05-12T03:47:51;96147.13;;;9.57;100.00
30339;BME280;795;49.296;11.348;2023-05-12T03:50:18;96122.38;;;9.39;100.00
30339;BME280;795;49.296;11.348;2023-05-12T03:52:45;96109.28;;;9.28;100.00
30339;BME280;795;49.296;11.348;2023-05-12T03:55:12;96146.63;;;9.54;100.00
30339;BME280;795;49.296;11.348;2023-05-12T03:57:39;96102.09;;;9.20;100.00
30339;BME280;795;49.296;11.348;2023-05-12T04:00:07;96124.53;;;9.35;100.00
30339;BME280;795;49.296;11.348;2023-05-12T04:02:34;96080.84;;;9.19;100.00
30339;BME280;795;49.296;11.348;2023-05-12T04:05:01;96089.22;;;9.24;100.00
30339;BME280;795;49.296;11.348;2023-05-12T04:07:28;96146.97;;;9.59;100.00
30339;BME280;795;49.296;11.348;2023-05-12T04:09:55;96112.66;;;9.38;100.00
30339;BME280;795;49.296;11.348;2023-05-12T04:12:22;96134.09;;;9.54;100.00
30339;BME280;795;49.296;11.348;2023-05-12T04:14:50;96127.56;;;9.49;100.00
30339;BME280;795;49.296;11.348;2023-05-12T04:17:17;96103.28;;;9.42;100.00
30339;BME280;795;49.296;11.348;2023-05-12T04:19:45;96124.69;;;9.50;100.00
30339;BME280;795;49.296;11.348;2023-05-12T04:22:12;96120.50;;;9.48;100.00
30339;BME280;795;49.296;11.348;2023-05-12T04:24:39;96145.94;;;9.68;100.00
30339;BME280;795;49.296;11.348;2023-05-12T04:27:06;96132.88;;;9.57;100.00
30339;BME280;795;49.296;11.348;2023-05-12T04:29:33;96170.41;;;9.81;100.00
30339;BME280;795;49.296;11.348;2023-05-12T04:32:00;96098.41;;;9.38;100.00
30339;BME280;795;49.296;11.348;2023-05-12T04:34:27;96158.84;;;9.72;100.00
30339;BME280;795;49.296;11.348;2023-05-12T04:36:54;96179.59;;;9.86;100.00
30339;BME280;795;49.296;11.348;2023-05-12T04:39:21;96176.25;;;9.84;100.00
30339;BME280;795;49.296;11.348;2023-05-12T04:41:48;96121.34;;;9.48;100.00
30339;BME280;795;49.296;11.348;2023-05-12T04:44:15;96182.13;;;9.88;100.00
30339;BME280;795;49.296;11.348;2023-05-12T04:46:42;96186.13;;;9.92;100.00
30339;BME280;795;49.296;11.348;2023-05-12T04:49:09;96156.34;;;9.71;100.00
30339;BME280;795;49.296;11.348;2023-05-12T04:51:37;96156.34;;;9.71;100.00
30339;BME280;795;49.296;11.348;2023-05-12T04:54:10;96187.28;;;9.97;100.00
30339;BME280;795;49.296;11.348;2023-05-12T04:56:37;96174.91;;;9.80;100.00
30339;BME280;795;49.296;11.348;2023-05-12T04:59:04;96168.38;;;9.75;100.00
30339;BME280;795;49.296;11.348;2023-05-12T05:01:31;96156.34;;;9.71;100.00
30339;BME280;795;49.296;11.348;2023-05-12T05:03:58;96151.50;;;9.66;100.00
30339;BME280;795;49.296;11.348;2023-05-12T05:06:25;96140.28;;;9.47;100.00
30339;BME280;795;49.296;11.348;2023-05-12T05:08:52;96197.03;;;9.82;100.00
30339;BME280;795;49.296;11.348;2023-05-12T05:11:18;96147.31;;;9.48;100.00
30339;BME280;795;49.296;11.348;2023-05-12T05:13:47;96168.22;;;9.52;100.00
30339;BME280;795;49.296;11.348;2023-05-12T05:16:14;96209.59;;;9.74;100.00
30339;BME280;795;49.296;11.348;2023-05-12T05:18:41;96186.47;;;9.57;100.00
30339;BME280;795;49.296;11.348;2023-05-12T05:21:12;96220.31;;;9.82;100.00
30339;BME280;795;49.296;11.348;2023-05-12T05:23:42;96164.38;;;9.55;100.00
30339;BME280;795;49.296;11.348;2023-05-12T05:26:09;96193.88;;;9.71;100.00
30339;BME280;795;49.296;11.348;2023-05-12T05:28:36;96150.50;;;9.51;100.00
30339;BME280;795;49.296;11.348;2023-05-12T05:31:06;96127.22;;;9.44;100.00
30339;BME280;795;49.296;11.348;2023-05-12T05:33:33;96167.72;;;9.73;100.00
30339;BME280;795;49.296;11.348;2023-05-12T05:36:00;96206.72;;;10.16;100.00
30339;BME280;795;49.296;11.348;2023-05-12T05:38:27;96169.13;;;10.08;100.00
30339;BME280;795;49.296;11.348;2023-05-12T05:40:54;96188.91;;;10.31;100.00
30339;BME280;795;49.296;11.348;2023-05-12T05:43:21;96173.91;;;10.44;100.00
30339;BME280;795;49.296;11.348;2023-05-12T05:45:49;96135.13;;;10.24;100.00
30339;BME280;795;49.296;11.348;2023-05-12T05:48:17;96194.81;;;10.65;100.00
30339;BME280;795;49.296;11.348;2023-05-12T05:50:44;96156.81;;;10.45;100.00
30339;BME280;795;49.296;11.348;2023-05-12T05:53:11;96200.75;;;10.83;100.00
30339;BME280;795;49.296;11.348;2023-05-12T05:55:38;96203.28;;;10.85;100.00
30339;BME280;795;49.296;11.348;2023-05-12T05:58:05;96175.63;;;10.76;100.00
30339;BME280;795;49.296;11.348;2023-05-12T06:00:31;96128.94;;;10.46;100.00
30339;BME280;795;49.296;11.348;2023-05-12T06:02:58;96164.44;;;10.64;100.00
30339;BME280;795;49.296;11.348;2023-05-12T06:05:26;96136.03;;;10.39;100.00
30339;BME280;795;49.296;11.348;2023-05-12T06:07:53;96181.53;;;10.63;100.00
30339;BME280;795;49.296;11.348;2023-05-12T06:10:20;96224.34;;;10.65;100.00
30339;BME280;795;49.296;11.348;2023-05-12T06:12:47;96187.34;;;10.44;100.00
30339;BME280;795;49.296;11.348;2023-05-12T06:15:14;96155.59;;;10.17;100.00
30339;BME280;795;49.296;11.348;2023-05-12T06:17:41;96207.25;;;10.58;100.00
30339;BME280;795;49.296;11.348;2023-05-12T06:20:09;96173.25;;;10.50;100.00
30339;BME280;795;49.296;11.348;2023-05-12T06:22:36;96179.66;;;10.41;100.00
30339;BME280;795;49.296;11.348;2023-05-12T06:25:05;96166.06;;;10.35;100.00
30339;BME280;795;49.296;11.348;2023-05-12T06:27:32;96191.19;;;10.42;100.00
30339;BME280;795;49.296;11.348;2023-05-12T06:29:59;96237.38;;;10.76;100.00
30339;BME280;795;49.296;11.348;2023-05-12T06:32:26;96227.97;;;10.80;100.00
30339;BME280;795;49.296;11.348;2023-05-12T06:34:53;96194.09;;;10.71;100.00
30339;BME280;795;49.296;11.348;2023-05-12T06:37:19;96241.41;;;11.11;100.00
30339;BME280;795;49.296;11.348;2023-05-12T06:39:46;96147.59;;;10.79;100.00
30339;BME280;795;49.296;11.348;2023-05-12T06:42:13;96178.75;;;11.18;100.00
30339;BME280;795;49.296;11.348;2023-05-12T06:44:41;96222.97;;;11.53;100.00
30339;BME280;795;49.296;11.348;2023-05-12T06:47:08;96200.47;;;11.54;100.00
30339;BME280;795;49.296;11.348;2023-05-12T06:49:35;96189.13;;;11.44;100.00
30339;BME280;795;49.296;11.348;2023-05-12T06:52:05;96209.78;;;11.44;100.00
30339;BME280;795;49.296;11.348;2023-05-12T06:54:32;96192.63;;;11.22;100.00
30339;BME280;795;49.296;11.348;2023-05-12T06:57:00;96156.56;;;10.94;100.00
30339;BME280;795;49.296;11.348;2023-05-12T06:59:27;96197.78;;;11.09;100.00
30339;BME280;795;49.296;11.348;2023-05-12T07:01:54;96243.22;;;11.41;100.00
30339;BME280;795;49.296;11.348;2023-05-12T07:04:21;96202.28;;;11.16;100.00
30339;BME280;795;49.296;11.348;2023-05-12T07:06:49;96236.44;;;11.30;100.00
30339;BME280;795;49.296;11.348;2023-05-12T07:09:16;96206.41;;;10.96;100.00
30339;BME280;795;49.296;11.348;2023-05-12T07:11:44;96228.22;;;11.01;100.00
30339;BME280;795;49.296;11.348;2023-05-12T07:14:11;96239.59;;;11.03;100.00
30339;BME280;795;49.296;11.348;2023-05-12T07:16:38;96202.44;;;10.84;100.00
30339;BME280;795;49.296;11.348;2023-05-12T07:19:05;96235.19;;;11.10;100.00
30339;BME280;795;49.296;11.348;2023-05-12T07:21:35;96241.72;;;11.16;100.00
30339;BME280;795;49.296;11.348;2023-05-12T07:24:03;96248.38;;;11.28;100.00
30339;BME280;795;49.296;11.348;2023-05-12T07:26:32;96168.50;;;10.91;100.00
30339;BME280;795;49.296;11.348;2023-05-12T07:28:59;96165.53;;;11.09;100.00
30339;BME280;795;49.296;11.348;2023-05-12T07:31:27;96203.69;;;11.27;100.00
30339;BME280;795;49.296;11.348;2023-05-12T07:33:55;96241.03;;;11.45;100.00
30339;BME280;795;49.296;11.348;2023-05-12T07:36:22;96202.72;;;11.20;100.00
30339;BME280;795;49.296;11.348;2023-05-12T07:38:49;96240.16;;;11.21;100.00
30339;BME280;795;49.296;11.348;2023-05-12T07:41:16;96225.00;;;11.06;100.00
30339;BME280;795;49.296;11.348;2023-05-12T07:43:44;96206.97;;;10.84;100.00
30339;BME280;795;49.296;11.348;2023-05-12T07:46:11;96255.00;;;11.09;100.00
30339;BME280;795;49.296;11.348;2023-05-12T07:48:39;96211.03;;;10.80;100.00
30339;BME280;795;49.296;11.348;2023-05-12T07:51:07;96248.41;;;10.89;100.00
30339;BME280;795;49.296;11.348;2023-05-12T07:53:34;96244.97;;;11.03;100.00
30339;BME280;795;49.296;11.348;2023-05-12T07:56:01;96188.50;;;10.81;100.00
30339;BME280;795;49.296;11.348;2023-05-12T07:58:28;96233.03;;;11.06;100.00
30339;BME280;795;49.296;11.348;2023-05-12T08:03:42;96264.16;;;11.54;100.00
30339;BME280;795;49.296;11.348;2023-05-12T08:06:10;96192.09;;;11.26;100.00
30339;BME280;795;49.296;11.348;2023-05-12T08:08:36;96163.66;;;11.09;100.00
30339;BME280;795;49.296;11.348;2023-05-12T08:11:04;96249.25;;;11.74;100.00
30339;BME280;795;49.296;11.348;2023-05-12T08:13:31;96249.84;;;11.84;100.00
30339;BME280;795;49.296;11.348;2023-05-12T08:15:58;96225.91;;;11.74;100.00
30339;BME280;795;49.296;11.348;2023-05-12T08:18:25;96233.13;;;11.74;100.00
30339;BME280;795;49.296;11.348;2023-05-12T08:20:52;96225.72;;;11.76;100.00
30339;BME280;795;49.296;11.348;2023-05-12T08:23:19;96255.75;;;12.02;100.00
30339;BME280;795;49.296;11.348;2023-05-12T08:25:46;96232.56;;;12.01;100.00
30339;BME280;795;49.296;11.348;2023-05-12T08:28:14;96179.44;;;11.58;100.00
30339;BME280;795;49.296;11.348;2023-05-12T08:30:41;96185.72;;;11.73;100.00
30339;BME280;795;49.296;11.348;2023-05-12T08:33:11;96236.22;;;11.85;100.00
30339;BME280;795;49.296;11.348;2023-05-12T08:35:38;96255.09;;;11.77;100.00
30339;BME280;795;49.296;11.348;2023-05-12T08:38:06;96270.13;;;11.64;100.00
30339;BME280;795;49.296;11.348;2023-05-12T08:41:06;96246.88;;;11.25;100.00
30339;BME280;795;49.296;11.348;2023-05-12T08:43:49;96228.38;;;11.00;100.00
30339;BME280;795;49.296;11.348;2023-05-12T08:46:16;96270.25;;;11.17;100.00
30339;BME280;795;49.296;11.348;2023-05-12T08:48:47;96223.59;;;10.79;100.00
30339;BME280;795;49.296;11.348;2023-05-12T08:51:18;96252.63;;;10.84;100.00
30339;BME280;795;49.296;11.348;2023-05-12T08:53:48;96205.59;;;10.57;100.00
30339;BME280;795;49.296;11.348;2023-05-12T08:56:19;96218.78;;;10.66;100.00
30339;BME280;795;49.296;11.348;2023-05-12T08:58:51;96209.97;;;10.50;100.00
30339;BME280;795;49.296;11.348;2023-05-12T09:01:20;96273.75;;;10.87;100.00
30339;BME280;795;49.296;11.348;2023-05-12T09:03:51;96293.84;;;10.99;100.00
30339;BME280;795;49.296;11.348;2023-05-12T09:06:19;96233.91;;;10.68;100.00
30339;BME280;795;49.296;11.348;2023-05-12T09:08:46;96259.47;;;10.94;100.00
30339;BME280;795;49.296;11.348;2023-05-12T09:11:16;96264.13;;;11.00;100.00
30339;BME280;795;49.296;11.348;2023-05-12T09:14:17;96299.38;;;11.36;100.00
30339;BME280;795;49.296;11.348;2023-05-12T09:17:02;96256.50;;;11.12;100.00
30339;BME280;795;49.296;11.348;2023-05-12T09:19:29;96110.81;;;10.18;100.00
30339;BME280;795;49.296;11.348;2023-05-12T09:21:57;96257.31;;;11.20;100.00
30339;BME280;795;49.296;11.348;2023-05-12T09:24:39;96295.72;;;11.60;100.00
30339;BME280;795;49.296;11.348;2023-05-12T09:27:07;96262.41;;;11.61;100.00
30339;BME280;795;49.296;11.348;2023-05-12T09:29:34;96261.66;;;11.75;100.00
30339;BME280;795;49.296;11.348;2023-05-12T09:32:17;96247.47;;;11.89;100.00
30339;BME280;795;49.296;11.348;2023-05-12T09:34:55;96256.00;;;12.30;100.00
30339;BME280;795;49.296;11.348;2023-05-12T09:37:31;96274.22;;;12.72;100.00
30339;BME280;795;49.296;11.348;2023-05-12T09:40:04;96238.66;;;12.61;100.00
30339;BME280;795;49.296;11.348;2023-05-12T09:42:34;96267.81;;;12.73;100.00
30339;BME280;795;49.296;11.348;2023-05-12T09:45:07;96257.22;;;12.42;100.00
30339;BME280;795;49.296;11.348;2023-05-12T09:47:38;96264.28;;;12.57;100.00
30339;BME280;795;49.296;11.348;2023-05-12T09:50:07;96236.31;;;12.29;100.00
30339;BME280;795;49.296;11.348;2023-05-12T09:52:38;96236.50;;;12.28;100.00
30339;BME280;795;49.296;11.348;2023-05-12T09:55:11;96275.84;;;12.29;100.00
30339;BME280;795;49.296;11.348;2023-05-12T09:57:42;96274.16;;;12.13;100.00
30339;BME280;795;49.296;11.348;2023-05-12T10:00:13;96277.22;;;12.10;100.00
30339;BME280;795;49.296;11.348;2023-05-12T10:03:00;96206.59;;;11.71;100.00
30339;BME280;795;49.296;11.348;2023-05-12T10:05:29;96258.91;;;12.06;100.00
30339;BME280;795;49.296;11.348;2023-05-12T10:08:03;96170.25;;;11.52;100.00
30339;BME280;795;49.296;11.348;2023-05-12T10:10:33;96218.19;;;11.71;100.00
30339;BME280;795;49.296;11.348;2023-05-12T10:13:01;96171.03;;;11.38;100.00
30339;BME280;795;49.296;11.348;2023-05-12T10:15:28;96234.13;;;11.73;100.00
30339;BME280;795;49.296;11.348;2023-05-12T10:17:55;96227.81;;;11.58;100.00
30339;BME280;795;49.296;11.348;2023-05-12T10:20:26;96255.53;;;11.58;100.00
30339;BME280;795;49.296;11.348;2023-05-12T10:22:56;96213.19;;;11.38;100.00
30339;BME280;795;49.296;11.348;2023-05-12T10:25:24;96283.78;;;11.85;100.00
30339;BME280;795;49.296;11.348;2023-05-12T10:27:54;96253.09;;;11.79;100.00
30339;BME280;795;49.296;11.348;2023-05-12T10:30:22;96262.03;;;11.94;100.00
30339;BME280;795;49.296;11.348;2023-05-12T10:32:49;96267.31;;;11.88;100.00
30339;BME280;795;49.296;11.348;2023-05-12T10:35:17;96265.22;;;11.75;100.00
30339;BME280;795;49.296;11.348;2023-05-12T10:37:45;96257.03;;;11.69;100.00
30339;BME280;795;49.296;11.348;2023-05-12T10:40:23;96245.34;;;11.54;100.00
30339;BME280;795;49.296;11.348;2023-05-12T10:42:51;96209.25;;;11.25;100.00
30339;BME280;795;49.296;11.348;2023-05-12T10:45:19;96230.63;;;11.42;100.00
30339;BME280;795;49.296;11.348;2023-05-12T10:47:47;96269.38;;;11.55;100.00
30339;BME280;795;49.296;11.348;2023-05-12T10:50:26;96278.22;;;11.64;100.00
30339;BME280;795;49.296;11.348;2023-05-12T10:52:55;96275.88;;;11.61;100.00
30339;BME280;795;49.296;11.348;2023-05-12T10:55:35;96301.56;;;11.71;100.00
30339;BME280;795;49.296;11.348;2023-05-12T10:58:11;96237.84;;;11.18;100.00
30339;BME280;795;49.296;11.348;2023-05-12T11:01:05;96308.19;;;11.53;100.00
30339;BME280;795;49.296;11.348;2023-05-12T11:03:34;96286.75;;;11.45;100.00
30339;BME280;795;49.296;11.348;2023-05-12T11:06:05;96268.50;;;11.32;100.00
30339;BME280;795;49.296;11.348;2023-05-12T11:08:36;96286.84;;;11.51;100.00
30339;BME280;795;49.296;11.348;2023-05-12T11:11:03;96302.69;;;11.77;100.00
30339;BME280;795;49.296;11.348;2023-05-12T11:13:34;96258.09;;;11.60;100.00
30339;BME280;795;49.296;11.348;2023-05-12T11:16:01;96284.28;;;11.88;100.00
30339;BME280;795;49.296;11.348;2023-05-12T11:18:28;96262.16;;;11.78;100.00
30339;BME280;795;49.296;11.348;2023-05-12T11:20:55;96249.97;;;11.90;100.00
30339;BME280;795;49.296;11.348;2023-05-12T11:23:27;96207.28;;;11.65;100.00
30339;BME280;795;49.296;11.348;2023-05-12T11:25:57;96253.84;;;12.11;100.00
30339;BME280;795;49.296;11.348;2023-05-12T11:28:25;96227.38;;;12.14;100.00
30339;BME280;795;49.296;11.348;2023-05-12T11:30:53;96230.44;;;12.26;100.00
30339;BME280;795;49.296;11.348;2023-05-12T11:33:22;96208.28;;;12.53;100.00
30339;BME280;795;49.296;11.348;2023-05-12T11:35:49;96292.56;;;13.20;100.00
30339;BME280;795;49.296;11.348;2023-05-12T11:38:18;96179.72;;;12.52;100.00
30339;BME280;795;49.296;11.348;2023-05-12T11:40:46;96237.19;;;12.74;100.00
30339;BME280;795;49.296;11.348;2023-05-12T11:43:19;96297.41;;;13.10;100.00
30339;BME280;795;49.296;11.348;2023-05-12T11:45:46;96278.78;;;13.00;100.00
30339;BME280;795;49.296;11.348;2023-05-12T11:48:13;96257.88;;;12.58;100.00
30339;BME280;795;49.296;11.348;2023-05-12T11:50:44;96291.50;;;12.11;100.00
30339;BME280;795;49.296;11.348;2023-05-12T11:53:18;96264.47;;;11.59;100.00
30339;BME280;795;49.296;11.348;2023-05-12T11:55:54;96328.56;;;12.01;100.00
30339;BME280;795;49.296;11.348;2023-05-12T11:58:26;96303.81;;;12.05;100.00
30339;BME280;795;49.296;11.348;2023-05-12T12:01:07;96293.50;;;12.09;100.00
30339;BME280;795;49.296;11.348;2023-05-12T12:03:50;96327.97;;;12.50;100.00
30339;BME280;795;49.296;11.348;2023-05-12T12:06:20;96240.94;;;12.21;100.00
30339;BME280;795;49.296;11.348;2023-05-12T12:08:58;96275.50;;;12.46;100.00
30339;BME280;795;49.296;11.348;2023-05-12T12:11:28;96264.38;;;12.35;100.00
30339;BME280;795;49.296;11.348;2023-05-12T12:13:57;96324.91;;;12.53;100.00
30339;BME280;795;49.296;11.348;2023-05-12T12:16:30;96262.47;;;12.21;100.00
30339;BME280;795;49.296;11.348;2023-05-12T12:18:57;96310.50;;;12.46;100.00
30339;BME280;795;49.296;11.348;2023-05-12T12:21:24;96282.69;;;12.17;100.00
30339;BME280;795;49.296;11.348;2023-05-12T12:23:51;96266.41;;;11.95;100.00
30339;BME280;795;49.296;11.348;2023-05-12T12:26:18;96337.81;;;12.58;100.00
30339;BME280;795;49.296;11.348;2023-05-12T12:28:48;96338.19;;;12.55;100.00
30339;BME280;795;49.296;11.348;2023-05-12T12:31:15;96325.44;;;12.34;100.00
30339;BME280;795;49.296;11.348;2023-05-12T12:33:42;96240.28;;;11.81;100.00
30339;BME280;795;49.296;11.348;2023-05-12T12:36:09;96284.63;;;12.08;100.00
30339;BME280;795;49.296;11.348;2023-05-12T12:38:36;96307.56;;;12.19;100.00
30339;BME280;795;49.296;11.348;2023-05-12T12:41:05;96250.31;;;11.87;100.00
30339;BME280;795;49.296;11.348;2023-05-12T12:43:32;96326.44;;;12.33;100.00
30339;BME280;795;49.296;11.348;2023-05-12T12:45:59;96292.56;;;12.02;100.00
30339;BME280;795;49.296;11.348;2023-05-12T12:48:26;96244.19;;;11.79;100.00
30339;BME280;795;49.296;11.348;2023-05-12T12:50:54;96263.34;;;11.98;100.00
30339;BME280;795;49.296;11.348;2023-05-12T12:53:21;96278.50;;;12.14;100.00
30339;BME280;795;49.296;11.348;2023-05-12T12:55:49;96299.75;;;12.46;100.00
30339;BME280;795;49.296;11.348;2023-05-12T12:58:15;96347.22;;;12.77;100.00
30339;BME280;795;49.296;11.348;2023-05-12T13:00:42;96317.59;;;12.77;100.00
30339;BME280;795;49.296;11.348;2023-05-12T13:03:10;96343.34;;;12.79;100.00
30339;BME280;795;49.296;11.348;2023-05-12T13:05:36;96305.00;;;12.25;100.00
30339;BME280;795;49.296;11.348;2023-05-12T13:08:04;96255.00;;;11.93;100.00
30339;BME280;795;49.296;11.348;2023-05-12T13:10:32;96292.75;;;12.00;100.00
30339;BME280;795;49.296;11.348;2023-05-12T13:12:59;96282.84;;;11.78;100.00
30339;BME280;795;49.296;11.348;2023-05-12T13:15:26;96210.88;;;11.34;100.00